noticiasautomotivas.com.br alexa rank chart, noticiasautomotivas.com.br alexa rank daily changes

noticiasautomotivas.com.br alexa rank chart, noticiasautomotivas.com.br alexa rank daily changes

noticiasautomotivas.com.br
Actual rank:
44 557

RANK HISTORY

Date Rank Diff
2018/05/19 44 557 -10 037
2018/05/18 54 594 +17 818
2018/05/17 36 776 -17 136
2018/05/16 53 912 +12 450
2018/05/15 41 462 -4 743
2018/05/14 46 205 +15 464
2018/05/13 30 741 -3 639
2018/05/12 34 380 -20 415
2018/05/11 54 795 +14 176
2018/05/10 40 619 -743
2018/05/09 41 362 +5 944
2018/05/08 35 418 -6 475
2018/05/07 41 893 -3 706
2018/05/06 45 599 +1 528
2018/05/05 44 071 -1 192
2018/05/04 45 263 -7 890
2018/05/03 53 153 +8 949
2018/05/02 44 204 +852
2018/05/01 43 352 -5 211
2018/04/30 48 563 +7 204
2018/04/29 41 359 +10 058
2018/04/28 31 301 -29 134
2018/04/27 60 435 +13 933
2018/04/26 46 502 -12 114
2018/04/25 58 616 +3 096
2018/04/24 55 520 -4 915
2018/04/23 60 435 +1 453
2018/04/22 58 982 +6 824
2018/04/21 52 158 -12 102
2018/04/20 64 260 +10 912
2018/04/19 53 348 +9 705
2018/04/18 43 643 -5 392
2018/04/17 49 035 -5 917
2018/04/16 54 952 +15 733
2018/04/15 39 219 -2 624
2018/04/14 41 843 -6 998
2018/04/13 48 841 -4 710
2018/04/12 53 551 +7 002
2018/04/11 46 549 +58
2018/04/10 46 491 -1 751
2018/04/09 48 242 -17 136
2018/04/08 65 378 +22 094
2018/04/07 43 284 -7 618
2018/04/06 50 902 -10 501
2018/04/05 61 403 +12 774
2018/04/04 48 629 -6 185
2018/04/03 54 814 +8 970
2018/04/02 45 844 +5 121
2018/04/01 40 723 -3 678
2018/03/31 44 401 -18 418
2018/03/30 62 819 +13 968
2018/03/29 48 851 +795
2018/03/28 48 056 -376
2018/03/27 48 432 -7 215
2018/03/26 55 647 -5 730
2018/03/25 61 377 -2 052
2018/03/24 63 429 +23 744
2018/03/23 39 685 +4 177
2018/03/22 35 508 -5 064
2018/03/21 40 572 -11 486
2018/03/20 52 058

WIDGET FOR YOUR SITE

DOMAINS WITH THE NEAREST RANK

Domain Rank
ksk.tw 44 552
uni-wuppertal.de 44 553
ziperto.com 44 554
chennaicorporation.gov.in 44 555
links.hr 44 556
noticiasautomotivas.com.br 44 557
amuse.co.jp 44 558
markertek.com 44 559
rotita.com 44 560
teachyourmonstertoread.com 44 561
spss-tutorials.com 44 562

DOMAINS WITH THE NEAREST RANK BY TLD .com.br

Domain Rank
outerspace.com.br 43 988
familia.com.br 44 104
procergs.com.br 44 279
guiadacarreira.com.br 44 314
paguemenos.com.br 44 452
noticiasautomotivas.com.br 44 557
newtoncbraga.com.br 44 658
folhavitoria.com.br 44 679
respostas.com.br 44 724
politize.com.br 45 037
etna.com.br 45 196